Time;durP1;ratioP1;P1;durP2;ratioP2;P2;SDS_P1;SDS_P2;PMS_P1;PMS_P2;Temp;Humidity;BMP_temperature;BMP_pressure;BME280_temperature;BME280_humidity;BME280_pressure;Samples;Min_cycle;Max_cycle;Signal;HPM_P1;HPM_P2
2023/11/10 00:02:26;;;;;;;2.03;1.70;;;;;;;7.65;100.00;153324.16;4973526;28;20460;-75
2023/11/10 00:04:53;;;;;;;2.20;1.60;;;;;;;7.63;100.00;153320.25;4973582;28;20457;-76
2023/11/10 00:07:20;;;;;;;1.70;1.43;;;;;;;7.62;100.00;153316.41;4995969;28;20556;-75
2023/11/10 00:09:48;;;;;;;2.10;1.40;;;;;;;7.63;100.00;153318.94;4991417;28;20457;-75
2023/11/10 00:12:17;;;;;;;2.00;1.70;;;;;;;7.62;100.00;153316.41;4976589;28;20458;-75
2023/11/10 00:14:45;;;;;;;2.40;1.60;;;;;;;7.61;100.00;153313.78;4975199;28;20448;-75
2023/11/10 00:17:11;;;;;;;2.57;1.77;;;;;;;7.62;100.00;153316.41;4975858;28;20511;-75
2023/11/10 00:19:38;;;;;;;2.20;1.53;;;;;;;7.63;100.00;153318.94;4990737;28;20485;-75
2023/11/10 00:22:05;;;;;;;1.47;1.37;;;;;;;7.63;100.00;153320.25;4989731;28;21295;-75
2023/11/10 00:24:34;;;;;;;2.37;1.63;;;;;;;7.62;100.00;153316.41;4976774;28;20446;-75
2023/11/10 00:27:02;;;;;;;1.90;1.60;;;;;;;7.62;100.00;153316.41;4973939;28;20448;-75
2023/11/10 00:29:28;;;;;;;2.20;1.57;;;;;;;7.60;100.00;153311.25;4978717;28;20457;-75
2023/11/10 00:31:56;;;;;;;2.00;1.80;;;;;;;7.59;100.00;153308.63;4992745;28;20442;-74
2023/11/10 00:34:22;;;;;;;1.53;1.37;;;;;;;7.60;100.00;153311.25;4975596;28;20426;-75
2023/11/10 00:36:49;;;;;;;1.40;1.00;;;;;;;7.58;100.00;153306.03;4991974;28;20473;-75
2023/11/10 00:39:19;;;;;;;2.00;1.67;;;;;;;7.55;100.00;153298.28;4967424;28;20478;-75
2023/11/10 00:41:46;;;;;;;1.70;1.30;;;;;;;7.54;100.00;153295.72;4966733;28;20474;-75
2023/11/10 00:44:14;;;;;;;2.30;1.10;;;;;;;7.52;100.00;153291.81;4990695;28;20445;-75
2023/11/10 00:46:40;;;;;;;2.13;1.43;;;;;;;7.49;100.00;153284.13;4977913;28;20453;-75
2023/11/10 00:49:09;;;;;;;2.93;2.23;;;;;;;7.49;100.00;153282.81;4990773;28;20852;-75
2023/11/10 00:51:36;;;;;;;2.00;1.60;;;;;;;7.47;100.00;153277.63;4964034;28;20450;-75
2023/11/10 00:54:03;;;;;;;1.67;1.27;;;;;;;7.46;100.00;153275.06;4958602;28;20449;-75
2023/11/10 00:56:30;;;;;;;1.70;1.40;;;;;;;7.44;100.00;153271.16;4967466;28;20453;-75
2023/11/10 00:58:58;;;;;;;1.67;1.10;;;;;;;7.42;100.00;153264.69;4968650;28;20578;-75
2023/11/10 01:01:26;;;;;;;1.73;1.00;;;;;;;7.40;100.00;153259.53;4971753;28;20537;-76
2023/11/10 01:03:53;;;;;;;2.33;1.50;;;;;;;7.38;100.00;153255.69;4972940;28;20458;-75
2023/11/10 01:06:19;;;;;;;1.40;1.00;;;;;;;7.36;100.00;153251.78;4988005;28;20585;-75
2023/11/10 01:08:46;;;;;;;2.00;1.20;;;;;;;7.36;100.00;153251.78;4983007;28;20454;-75
2023/11/10 01:11:12;;;;;;;1.80;1.47;;;;;;;7.35;100.00;153247.94;4980625;28;20544;-75
2023/11/10 01:13:39;;;;;;;2.30;1.80;;;;;;;7.36;100.00;153251.78;4992653;28;20969;-75
2023/11/10 01:16:06;;;;;;;1.90;1.33;;;;;;;7.35;100.00;153249.25;4982058;28;20440;-75
2023/11/10 01:18:34;;;;;;;2.03;1.13;;;;;;;7.34;100.00;153245.34;4972815;28;20548;-75
2023/11/10 01:21:01;;;;;;;1.60;1.20;;;;;;;7.33;100.00;153244.03;4991380;28;20488;-75
2023/11/10 01:23:28;;;;;;;2.40;1.53;;;;;;;7.30;100.00;153235.03;4996421;28;20931;-75
2023/11/10 01:25:54;;;;;;;4.20;1.33;;;;;;;7.28;100.00;153229.88;5011524;28;20523;-76
2023/11/10 01:28:21;;;;;;;1.10;0.87;;;;;;;7.25;100.00;153223.38;5001400;28;20480;-75
2023/11/10 01:30:48;;;;;;;1.10;0.90;;;;;;;7.23;100.00;153216.91;4974288;28;20841;-74
2023/11/10 01:33:15;;;;;;;1.30;0.73;;;;;;;7.20;100.00;153210.47;4969792;28;20565;-75
2023/11/10 01:35:43;;;;;;;1.30;0.90;;;;;;;7.19;100.00;153207.91;4980617;28;20834;-75
2023/11/10 01:38:10;;;;;;;1.60;1.00;;;;;;;7.17;100.00;153202.75;4983907;28;20949;-75
2023/11/10 01:40:38;;;;;;;1.10;0.77;;;;;;;7.19;100.00;153207.91;4987152;28;21078;-75
2023/11/10 01:43:08;;;;;;;1.63;1.07;;;;;;;7.15;100.00;153197.56;4974076;28;20489;-75
2023/11/10 01:45:35;;;;;;;2.50;1.00;;;;;;;7.17;100.00;153201.47;4989502;28;20453;-75
2023/11/10 01:48:02;;;;;;;1.50;0.70;;;;;;;7.19;100.00;153206.63;4991556;28;20804;-75
2023/11/10 01:50:29;;;;;;;0.93;0.60;;;;;;;7.19;100.00;153207.91;4990842;28;20446;-75
2023/11/10 01:52:58;;;;;;;1.10;0.60;;;;;;;7.21;100.00;153213.06;4982003;28;20461;-75
2023/11/10 01:55:24;;;;;;;1.20;0.80;;;;;;;7.19;100.00;153207.91;4973607;28;20542;-75
2023/11/10 01:57:51;;;;;;;2.13;1.30;;;;;;;7.19;100.00;153207.91;4998629;28;20469;-75
2023/11/10 02:00:19;;;;;;;1.43;1.07;;;;;;;7.16;100.00;153198.84;4989479;28;21027;-75
2023/11/10 02:02:47;;;;;;;1.63;1.20;;;;;;;7.16;100.00;153200.16;4960467;28;21057;-75
2023/11/10 02:05:13;;;;;;;1.77;1.20;;;;;;;7.17;100.00;153202.75;4982201;28;20489;-75
2023/11/10 02:07:40;;;;;;;1.93;1.33;;;;;;;7.20;100.00;153209.22;4972141;28;20511;-75
2023/11/10 02:10:09;;;;;;;1.83;1.10;;;;;;;7.21;100.00;153213.06;4989238;28;20457;-75
2023/11/10 02:12:36;;;;;;;1.73;1.07;;;;;;;7.22;100.00;153215.66;4990769;28;20461;-74
2023/11/10 02:15:03;;;;;;;1.20;0.97;;;;;;;7.24;100.00;153219.53;4955103;28;20975;-75
2023/11/10 02:17:30;;;;;;;1.87;1.00;;;;;;;7.25;100.00;153223.38;4972559;28;20907;-75
2023/11/10 02:19:56;;;;;;;1.87;1.20;;;;;;;7.27;100.00;153227.28;4970640;28;20482;-75
2023/11/10 02:22:24;;;;;;;1.37;0.90;;;;;;;7.28;100.00;153231.13;4953507;28;20541;-75
2023/11/10 02:24:50;;;;;;;1.70;1.37;;;;;;;7.30;100.00;153235.03;4942506;28;20455;-75
2023/11/10 02:27:18;;;;;;;1.50;0.90;;;;;;;7.29;100.00;153233.72;4972499;28;20445;-75
2023/11/10 02:29:45;;;;;;;1.90;1.00;;;;;;;7.31;100.00;153237.59;4970324;28;20458;-76
2023/11/10 02:32:12;;;;;;;1.33;1.17;;;;;;;7.32;100.00;153241.47;4988650;28;20847;-75
2023/11/10 02:34:39;;;;;;;1.53;1.40;;;;;;;7.33;100.00;153242.78;4981381;28;20484;-75
2023/11/10 02:37:07;;;;;;;1.43;1.03;;;;;;;7.36;100.00;153250.50;4982068;28;20602;-75
2023/11/10 02:39:33;;;;;;;1.40;1.10;;;;;;;7.38;100.00;153254.41;4986840;28;20477;-75
2023/11/10 02:42:02;;;;;;;1.77;1.20;;;;;;;7.38;100.00;153254.41;4970078;28;20544;-75
2023/11/10 02:44:30;;;;;;;1.90;1.10;;;;;;;7.39;100.00;153258.25;4985105;28;21007;-75
2023/11/10 02:46:57;;;;;;;2.27;1.50;;;;;;;7.39;100.00;153258.25;4982635;28;20461;-75
2023/11/10 02:49:23;;;;;;;2.33;1.33;;;;;;;7.41;100.00;153262.16;4967346;28;20463;-75
2023/11/10 02:51:50;;;;;;;1.53;0.90;;;;;;;7.41;100.00;153262.16;4951750;28;20465;-75
2023/11/10 02:54:17;;;;;;;1.80;1.20;;;;;;;7.40;100.00;153260.84;4983528;28;20454;-75
2023/11/10 02:56:44;;;;;;;1.87;1.20;;;;;;;7.40;100.00;153259.53;4986359;28;20454;-75
2023/11/10 02:59:11;;;;;;;1.27;0.90;;;;;;;7.36;100.00;153251.78;4990193;28;20441;-75
2023/11/10 03:01:39;;;;;;;2.03;1.20;;;;;;;7.35;100.00;153249.25;4963613;28;20856;-75
2023/11/10 03:04:06;;;;;;;2.27;1.13;;;;;;;7.36;100.00;153251.78;4989523;28;20520;-75
2023/11/10 03:06:32;;;;;;;1.30;1.00;;;;;;;7.34;100.00;153245.34;4976523;28;21010;-75
2023/11/10 03:09:01;;;;;;;1.23;1.10;;;;;;;7.35;100.00;153249.25;4986184;28;20900;-75
2023/11/10 03:11:27;;;;;;;1.70;0.90;;;;;;;7.33;100.00;153244.03;4981948;28;20496;-75
2023/11/10 03:13:55;;;;;;;1.10;0.80;;;;;;;7.32;100.00;153240.19;4968692;28;20465;-75
2023/11/10 03:16:21;;;;;;;1.13;0.67;;;;;;;7.30;100.00;153236.34;4969262;28;20459;-75
2023/11/10 03:18:50;;;;;;;2.23;1.00;;;;;;;7.27;100.00;153227.28;4969792;28;21008;-76
2023/11/10 03:21:17;;;;;;;1.03;0.70;;;;;;;7.24;100.00;153219.53;4980528;28;20465;-75
2023/11/10 03:23:44;;;;;;;1.07;0.53;;;;;;;7.23;100.00;153218.22;4983732;28;20430;-75
2023/11/10 03:26:11;;;;;;;1.27;0.70;;;;;;;7.25;100.00;153222.13;4968227;28;20473;-75
2023/11/10 03:28:38;;;;;;;1.00;0.60;;;;;;;7.21;100.00;153211.78;4982027;28;20956;-75
2023/11/10 03:31:06;;;;;;;0.90;0.53;;;;;;;7.17;100.00;153202.75;4992517;28;20512;-75
2023/11/10 03:33:34;;;;;;;1.00;0.50;;;;;;;7.19;100.00;153207.91;4960093;28;20457;-75
2023/11/10 03:36:02;;;;;;;0.90;0.40;;;;;;;7.19;100.00;153206.63;4977245;28;20438;-75
2023/11/10 03:38:29;;;;;;;0.90;0.40;;;;;;;7.21;100.00;153213.06;4989057;28;20501;-75
2023/11/10 03:40:58;;;;;;;0.90;0.50;;;;;;;7.21;100.00;153211.78;4976433;28;20485;-75
2023/11/10 03:43:25;;;;;;;1.00;0.40;;;;;;;7.21;100.00;153213.06;4993458;28;20442;-75
2023/11/10 03:45:52;;;;;;;0.80;0.33;;;;;;;7.17;100.00;153202.75;4957872;28;22873;-75
2023/11/10 03:48:18;;;;;;;1.23;0.60;;;;;;;7.19;100.00;153207.91;4988265;28;20520;-75
2023/11/10 03:50:45;;;;;;;0.80;0.50;;;;;;;7.16;100.00;153200.16;4991495;28;20449;-75
2023/11/10 03:53:13;;;;;;;0.70;0.30;;;;;;;7.14;100.00;153193.72;4975322;28;20507;-75
2023/11/10 03:55:39;;;;;;;1.30;0.47;;;;;;;7.15;100.00;153197.56;4991836;28;20884;-75
2023/11/10 03:58:07;;;;;;;1.10;0.57;;;;;;;7.15;100.00;153196.25;5008441;28;20457;-75
2023/11/10 04:00:34;;;;;;;0.90;0.50;;;;;;;7.13;100.00;153192.41;4975779;28;20476;-75
2023/11/10 04:03:01;;;;;;;1.30;0.60;;;;;;;7.15;100.00;153197.56;5007677;28;20453;-75
2023/11/10 04:05:27;;;;;;;1.30;0.50;;;;;;;7.13;100.00;153192.41;4967399;28;20462;-75
2023/11/10 04:07:54;;;;;;;0.80;0.40;;;;;;;7.13;100.00;153192.41;4992075;28;20813;-75
2023/11/10 04:10:22;;;;;;;1.10;0.60;;;;;;;7.11;100.00;153187.25;4974463;28;20445;-75
2023/11/10 04:12:48;;;;;;;0.80;0.47;;;;;;;7.12;100.00;153188.56;4985164;28;20512;-75
2023/11/10 04:15:15;;;;;;;2.20;0.70;;;;;;;7.11;100.00;153187.25;4993554;28;21047;-75
2023/11/10 04:17:42;;;;;;;2.53;0.70;;;;;;;7.11;100.00;153187.25;4990506;28;20468;-75
2023/11/10 04:20:10;;;;;;;1.03;0.53;;;;;;;7.13;100.00;153192.41;4973743;28;20528;-75
2023/11/10 04:22:40;;;;;;;1.20;0.77;;;;;;;7.14;100.00;153193.72;4985611;28;20450;-75
2023/11/10 04:25:08;;;;;;;1.87;0.60;;;;;;;7.13;100.00;153192.41;4991304;28;20437;-75
2023/11/10 04:27:35;;;;;;;1.27;0.73;;;;;;;7.13;100.00;153191.09;4991440;28;20457;-75
2023/11/10 04:30:03;;;;;;;1.20;0.63;;;;;;;7.10;100.00;153183.34;4991439;28;20450;-75
2023/11/10 04:32:30;;;;;;;0.90;0.47;;;;;;;7.10;100.00;153183.34;4975090;28;20527;-75
2023/11/10 04:34:56;;;;;;;1.20;0.70;;;;;;;7.09;100.00;153180.81;4974643;28;20441;-75
2023/11/10 04:37:23;;;;;;;0.90;0.60;;;;;;;7.11;100.00;153187.25;4972812;28;20625;-75
2023/11/10 04:39:52;;;;;;;1.00;0.53;;;;;;;7.08;100.00;153179.50;4984831;28;20455;-75
2023/11/10 04:42:19;;;;;;;1.10;0.60;;;;;;;7.08;100.00;153179.50;4974797;28;20509;-75
2023/11/10 04:44:47;;;;;;;1.33;0.50;;;;;;;7.06;100.00;153174.34;4987379;28;20449;-75
2023/11/10 04:47:13;;;;;;;1.07;0.30;;;;;;;7.06;100.00;153174.34;4955671;28;20465;-75
2023/11/10 04:49:40;;;;;;;1.00;0.50;;;;;;;7.06;100.00;153174.34;4974742;28;20444;-75
2023/11/10 04:52:07;;;;;;;0.80;0.40;;;;;;;7.04;100.00;153169.16;4975140;28;20480;-76
2023/11/10 04:54:33;;;;;;;0.80;0.30;;;;;;;7.02;100.00;153164.00;4992381;28;20814;-75
2023/11/10 04:57:00;;;;;;;0.70;0.30;;;;;;;7.04;100.00;153169.16;4978318;28;20462;-75
2023/11/10 04:59:27;;;;;;;0.90;0.60;;;;;;;7.03;100.00;153165.28;4973467;28;20505;-75
2023/11/10 05:01:57;;;;;;;0.80;0.33;;;;;;;7.01;100.00;153161.44;4983910;28;20548;-75
2023/11/10 05:04:24;;;;;;;0.70;0.20;;;;;;;7.01;100.00;153161.44;4988946;28;20481;-75
2023/11/10 05:06:51;;;;;;;0.80;0.30;;;;;;;7.01;100.00;153161.44;4973737;28;20485;-75
2023/11/10 05:09:17;;;;;;;0.70;0.30;;;;;;;6.99;100.00;153156.25;4991076;28;20450;-75
2023/11/10 05:11:46;;;;;;;0.80;0.30;;;;;;;6.99;100.00;153156.25;4978115;28;20453;-76
2023/11/10 05:14:13;;;;;;;0.70;0.30;;;;;;;7.00;100.00;153157.53;4990213;28;20529;-75
2023/11/10 05:16:39;;;;;;;0.70;0.23;;;;;;;7.01;100.00;153160.13;4991319;28;20441;-75
2023/11/10 05:19:07;;;;;;;1.40;0.60;;;;;;;6.98;100.00;153153.69;4989059;28;20461;-75
2023/11/10 05:21:34;;;;;;;0.60;0.20;;;;;;;6.98;100.00;153152.38;4977486;28;20473;-75
2023/11/10 05:24:00;;;;;;;3.13;0.30;;;;;;;6.95;100.00;153145.94;4990476;28;20465;-75
2023/11/10 05:26:30;;;;;;;1.10;0.50;;;;;;;6.95;100.00;153144.63;4991581;28;20924;-76
2023/11/10 05:28:56;;;;;;;0.80;0.30;;;;;;;6.93;100.00;153140.78;4959579;28;20539;-75
2023/11/10 05:31:23;;;;;;;0.70;0.23;;;;;;;6.92;100.00;153138.19;4986397;28;20811;-75
2023/11/10 05:33:51;;;;;;;0.70;0.30;;;;;;;6.92;100.00;153138.19;4970395;28;22417;-75
2023/11/10 05:36:19;;;;;;;0.70;0.30;;;;;;;6.93;100.00;153140.78;4965806;28;20545;-76
2023/11/10 05:38:46;;;;;;;0.60;0.20;;;;;;;6.93;100.00;153139.47;4961187;28;20495;-75
2023/11/10 05:41:12;;;;;;;0.70;0.30;;;;;;;6.90;100.00;153131.72;4973909;28;20484;-75
2023/11/10 05:43:39;;;;;;;0.70;0.30;;;;;;;6.86;100.00;153122.69;4973237;28;21311;-75
2023/11/10 05:46:06;;;;;;;1.50;0.33;;;;;;;6.85;100.00;153118.81;4985505;28;20461;-76
2023/11/10 05:48:32;;;;;;;1.90;0.30;;;;;;;6.85;100.00;153120.13;4981992;28;20470;-75
2023/11/10 05:51:03;;;;;;;0.80;0.30;;;;;;;6.85;100.00;153120.13;4963382;28;20462;-75
2023/11/10 05:53:31;;;;;;;0.80;0.23;;;;;;;6.81;100.00;153108.47;4973013;28;20468;-75
2023/11/10 05:55:59;;;;;;;0.63;0.27;;;;;;;6.77;100.00;153099.47;4988967;28;20928;-76
2023/11/10 05:58:26;;;;;;;0.80;0.30;;;;;;;6.76;100.00;153096.88;4989662;28;20441;-75
2023/11/10 06:00:53;;;;;;;2.80;0.40;;;;;;;6.76;100.00;153096.88;4986192;28;20469;-75
2023/11/10 06:03:19;;;;;;;0.80;0.40;;;;;;;6.77;100.00;153099.47;4988356;28;20468;-75
2023/11/10 06:05:46;;;;;;;0.70;0.30;;;;;;;6.74;100.00;153091.72;4978006;28;20828;-75
2023/11/10 06:08:14;;;;;;;0.80;0.30;;;;;;;6.71;100.00;153083.97;4986035;28;20465;-75
2023/11/10 06:10:42;;;;;;;0.80;0.43;;;;;;;6.75;100.00;153094.31;4968618;28;20574;-75
2023/11/10 06:13:10;;;;;;;0.60;0.20;;;;;;;6.76;100.00;153096.88;4969640;28;20457;-75
2023/11/10 06:15:37;;;;;;;0.70;0.30;;;;;;;6.72;100.00;153086.56;4968304;28;20972;-75
2023/11/10 06:18:04;;;;;;;0.97;0.30;;;;;;;6.74;100.00;153091.72;4967268;28;20555;-75
2023/11/10 06:20:31;;;;;;;0.87;0.40;;;;;;;6.75;100.00;153094.31;4980620;28;20468;-75
2023/11/10 06:22:57;;;;;;;1.50;0.30;;;;;;;6.77;100.00;153099.47;4963425;28;20458;-75
2023/11/10 06:25:24;;;;;;;0.87;0.40;;;;;;;6.76;100.00;153096.88;4963453;28;20459;-75
2023/11/10 06:27:53;;;;;;;1.17;0.53;;;;;;;6.74;100.00;153093.03;4962818;28;20452;-75
2023/11/10 06:30:20;;;;;;;2.23;1.00;;;;;;;6.75;100.00;153094.31;4967026;28;20449;-75
2023/11/10 06:32:46;;;;;;;1.67;1.17;;;;;;;6.78;100.00;153100.78;4969554;28;20456;-75
2023/11/10 06:35:13;;;;;;;2.50;1.70;;;;;;;6.79;100.00;153103.31;4968487;28;20820;-75
2023/11/10 06:37:40;;;;;;;5.07;3.30;;;;;;;6.79;100.00;153104.63;4963175;28;20499;-75
2023/11/10 06:40:08;;;;;;;4.20;2.40;;;;;;;6.75;100.00;153094.31;4953721;28;20899;-75
2023/11/10 06:42:35;;;;;;;2.20;1.37;;;;;;;6.77;100.00;153099.47;4984799;28;20492;-75
2023/11/10 06:45:04;;;;;;;1.10;0.87;;;;;;;6.79;100.00;153103.31;4985388;28;21043;-75
2023/11/10 06:47:32;;;;;;;1.77;0.50;;;;;;;6.78;100.00;153102.03;4963766;28;20847;-75
2023/11/10 06:49:59;;;;;;;0.80;0.40;;;;;;;6.79;100.00;153103.31;4978258;28;20588;-75
2023/11/10 06:52:26;;;;;;;0.70;0.30;;;;;;;6.79;100.00;153104.63;4964844;28;20453;-75
2023/11/10 06:54:52;;;;;;;2.17;0.33;;;;;;;6.78;100.00;153102.03;4961690;28;20450;-75
2023/11/10 06:57:20;;;;;;;0.70;0.30;;;;;;;6.78;100.00;153102.03;4980754;28;20453;-75
2023/11/10 06:59:47;;;;;;;1.57;0.40;;;;;;;6.80;100.00;153105.91;4985746;28;21302;-75
2023/11/10 07:02:16;;;;;;;1.10;0.47;;;;;;;6.77;100.00;153098.19;4987654;28;20821;-75
2023/11/10 07:04:42;;;;;;;1.17;0.80;;;;;;;6.78;100.00;153102.03;4969248;28;20809;-75
2023/11/10 07:07:10;;;;;;;0.93;0.57;;;;;;;6.82;100.00;153111.06;4967781;28;20458;-75
2023/11/10 07:09:36;;;;;;;0.80;0.60;;;;;;;6.82;100.00;153111.06;4967651;28;20453;-75
2023/11/10 07:12:03;;;;;;;1.47;0.70;;;;;;;6.81;100.00;153109.78;4971121;28;20457;-75
2023/11/10 07:14:32;;;;;;;1.90;1.20;;;;;;;6.78;100.00;153100.78;4984168;28;20520;-75
2023/11/10 07:16:58;;;;;;;1.13;0.73;;;;;;;6.75;100.00;153095.56;4980484;28;21645;-75
2023/11/10 07:19:26;;;;;;;1.10;0.70;;;;;;;6.76;100.00;153096.88;4981511;28;20867;-75
2023/11/10 07:21:53;;;;;;;0.90;0.53;;;;;;;6.74;100.00;153091.72;4986191;28;20481;-75
2023/11/10 07:24:19;;;;;;;0.80;0.50;;;;;;;6.72;100.00;153086.56;4947477;28;20469;-74
2023/11/10 07:26:46;;;;;;;1.20;0.50;;;;;;;6.71;100.00;153085.28;4962164;28;20457;-75
2023/11/10 07:29:13;;;;;;;0.80;0.60;;;;;;;6.69;100.00;153078.81;4967428;28;20453;-75
2023/11/10 07:31:39;;;;;;;1.30;0.50;;;;;;;6.70;100.00;153081.38;4967500;28;20461;-74
2023/11/10 07:34:07;;;;;;;1.47;1.00;;;;;;;6.73;100.00;153089.13;4953554;28;20464;-74
2023/11/10 07:36:36;;;;;;;0.80;0.50;;;;;;;6.74;100.00;153093.03;4986247;28;20487;-74
2023/11/10 07:39:03;;;;;;;1.40;0.70;;;;;;;6.74;100.00;153093.03;4965787;28;20457;-74
2023/11/10 07:41:30;;;;;;;1.00;0.50;;;;;;;6.75;100.00;153095.56;4979488;28;20515;-74
2023/11/10 07:43:56;;;;;;;0.87;0.47;;;;;;;6.79;100.00;153103.31;4964323;28;20458;-74
2023/11/10 07:46:23;;;;;;;1.10;0.50;;;;;;;6.85;100.00;153120.13;4986031;28;20464;-75
2023/11/10 07:48:49;;;;;;;1.30;0.70;;;;;;;6.87;100.00;153123.97;4986724;28;20532;-74
2023/11/10 07:51:19;;;;;;;1.33;0.83;;;;;;;6.91;100.00;153135.59;4979343;28;20461;-74
2023/11/10 07:53:47;;;;;;;1.10;0.70;;;;;;;6.91;100.00;153135.59;4980430;28;20523;-75
2023/11/10 07:56:14;;;;;;;1.87;1.00;;;;;;;6.94;100.00;153142.03;4982576;28;20464;-75
2023/11/10 07:58:41;;;;;;;1.20;0.70;;;;;;;6.95;100.00;153145.94;4986299;28;20456;-75
2023/11/10 08:01:08;;;;;;;1.00;0.60;;;;;;;6.96;100.00;153147.25;4966874;28;20802;-75
2023/11/10 08:03:34;;;;;;;1.03;0.60;;;;;;;6.97;100.00;153151.09;4979671;28;20461;-75
2023/11/10 08:06:01;;;;;;;1.63;1.20;;;;;;;7.01;100.00;153160.13;4962184;28;20472;-75
2023/11/10 08:08:27;;;;;;;1.03;0.50;;;;;;;7.04;100.00;153169.16;4967435;28;20816;-75
2023/11/10 08:10:55;;;;;;;0.80;0.50;;;;;;;7.11;100.00;153187.25;4986283;28;20460;-75
2023/11/10 08:13:22;;;;;;;0.73;0.30;;;;;;;7.18;100.00;153205.31;4985971;28;20457;-75
2023/11/10 08:15:49;;;;;;;1.30;0.80;;;;;;;7.22;100.00;153214.38;4986539;28;20453;-75
2023/11/10 08:18:16;;;;;;;1.50;1.30;;;;;;;7.26;100.00;153225.97;4971849;28;21035;-74
2023/11/10 08:20:44;;;;;;;1.40;0.80;;;;;;;7.26;100.00;153225.97;4966458;28;20458;-75
2023/11/10 08:23:11;;;;;;;1.20;0.80;;;;;;;7.26;100.00;153224.66;4965588;28;20489;-75
2023/11/10 08:25:37;;;;;;;1.10;0.90;;;;;;;7.27;100.00;153227.28;4971462;28;21089;-75
2023/11/10 08:28:08;;;;;;;0.80;0.50;;;;;;;7.28;100.00;153231.13;4988738;28;20963;-74
2023/11/10 08:30:35;;;;;;;0.90;0.50;;;;;;;7.31;100.00;153238.88;4977765;28;20536;-75
2023/11/10 08:33:07;;;;;;;2.60;0.87;;;;;;;7.30;100.00;153236.34;4990452;28;20556;-74
2023/11/10 08:35:34;;;;;;;1.40;0.57;;;;;;;7.31;100.00;153238.88;4980580;28;20461;-75
2023/11/10 08:38:00;;;;;;;0.90;0.60;;;;;;;7.34;100.00;153245.34;4983562;28;20488;-74
2023/11/10 08:40:27;;;;;;;0.90;0.50;;;;;;;7.36;100.00;153251.78;4987139;28;21038;-74
2023/11/10 08:42:54;;;;;;;1.00;0.53;;;;;;;7.40;100.00;153260.84;4954602;28;21029;-74
2023/11/10 08:45:22;;;;;;;1.10;0.80;;;;;;;7.43;100.00;153267.31;4970363;28;20770;-75
2023/11/10 08:47:49;;;;;;;1.10;0.80;;;;;;;7.48;100.00;153280.22;4987145;28;20450;-74
2023/11/10 08:50:16;;;;;;;1.13;0.50;;;;;;;7.57;100.00;153303.47;4969323;28;20458;-75
2023/11/10 08:52:46;;;;;;;1.57;0.50;;;;;;;7.62;100.00;153317.69;4952541;28;20461;-75
2023/11/10 08:55:14;;;;;;;0.90;0.40;;;;;;;7.68;100.00;153331.84;4968872;28;20448;-75
2023/11/10 08:57:40;;;;;;;5.17;0.70;;;;;;;7.73;100.00;153346.06;4987370;28;21011;-75
2023/11/10 09:00:09;;;;;;;1.37;0.50;;;;;;;7.81;100.00;153365.50;4989017;28;20466;-74
2023/11/10 09:02:38;;;;;;;0.70;0.30;;;;;;;7.89;100.00;153386.13;4987144;28;20473;-74
2023/11/10 09:05:05;;;;;;;1.17;0.53;;;;;;;7.91;100.00;153391.31;4991884;28;20453;-74
2023/11/10 09:07:33;;;;;;;0.80;0.33;;;;;;;7.96;100.00;153404.22;4971691;28;20458;-74
2023/11/10 09:10:00;;;;;;;1.43;0.30;;;;;;;7.96;100.00;153404.22;4987420;28;20457;-75
2023/11/10 09:12:27;;;;;;;1.00;0.53;;;;;;;7.97;100.00;153406.78;4988268;28;20535;-75
2023/11/10 09:14:53;;;;;;;0.80;0.43;;;;;;;7.99;100.00;153412.00;4987022;28;20464;-74
2023/11/10 09:17:21;;;;;;;0.70;0.30;;;;;;;8.02;100.00;153419.75;4988761;28;20493;-75
2023/11/10 09:19:48;;;;;;;0.80;0.30;;;;;;;8.02;100.00;153418.44;4971671;28;20540;-74
2023/11/10 09:22:15;;;;;;;0.77;0.37;;;;;;;8.06;100.00;153430.06;4988108;28;20544;-74
2023/11/10 09:24:42;;;;;;;1.03;0.40;;;;;;;8.08;100.00;153435.22;4988494;28;20460;-74
2023/11/10 09:27:08;;;;;;;0.93;0.40;;;;;;;8.09;100.00;153437.81;4988835;28;20780;-75
2023/11/10 09:29:35;;;;;;;1.47;0.80;;;;;;;8.16;100.00;153455.91;4988035;28;20453;-74
2023/11/10 09:32:02;;;;;;;1.00;0.50;;;;;;;8.25;100.00;153479.19;4969972;28;20836;-75
2023/11/10 09:34:29;;;;;;;0.87;0.50;;;;;;;8.37;100.00;153510.22;4985330;28;20450;-74
2023/11/10 09:36:58;;;;;;;0.77;0.33;;;;;;;8.45;100.00;153530.91;4965051;28;20508;-74
2023/11/10 09:39:25;;;;;;;1.80;0.63;;;;;;;8.51;100.00;153545.13;4985874;28;20899;-74
2023/11/10 09:41:53;;;;;;;1.50;0.77;;;;;;;8.47;100.00;153536.06;4986526;28;20806;-74
2023/11/10 09:44:21;;;;;;;1.93;0.50;;;;;;;8.46;100.00;153533.53;4985233;28;20464;-74
2023/11/10 09:46:48;;;;;;;0.90;0.47;;;;;;;8.50;100.00;153542.53;4965809;28;20445;-74
2023/11/10 09:49:14;;;;;;;1.30;0.60;;;;;;;8.48;100.00;153538.69;4969341;28;20453;-74
2023/11/10 09:51:41;;;;;;;0.80;0.47;;;;;;;8.51;100.00;153546.44;4966819;28;21085;-74
2023/11/10 09:54:09;;;;;;;1.43;0.60;;;;;;;8.51;100.00;153545.13;4979267;28;20860;-75
2023/11/10 09:56:37;;;;;;;1.13;0.50;;;;;;;8.60;100.00;153567.13;4984223;28;21016;-75
2023/11/10 09:59:06;;;;;;;1.53;0.60;;;;;;;8.65;100.00;153581.34;4986851;28;20469;-74
2023/11/10 10:01:32;;;;;;;3.00;0.60;;;;;;;8.73;100.00;153600.72;4965818;28;20459;-75
2023/11/10 10:03:59;;;;;;;1.57;0.50;;;;;;;8.76;100.00;153608.50;4986174;28;20810;-74
2023/11/10 10:06:26;;;;;;;1.10;0.57;;;;;;;8.71;100.00;153596.81;4987314;28;20476;-74
2023/11/10 10:08:54;;;;;;;2.23;0.60;;;;;;;8.69;100.00;153590.38;4986470;28;20448;-74
2023/11/10 10:11:22;;;;;;;1.27;0.60;;;;;;;8.66;100.00;153582.66;4988168;28;20449;-74
2023/11/10 10:13:49;;;;;;;0.80;0.40;;;;;;;8.61;100.00;153570.97;4969300;28;20540;-74
2023/11/10 10:16:16;;;;;;;1.63;0.43;;;;;;;8.56;100.00;153559.38;4983615;28;20515;-74
2023/11/10 10:18:43;;;;;;;2.30;0.50;;;;;;;8.52;100.00;153549.00;4978989;28;20456;-74
2023/11/10 10:21:11;;;;;;;0.90;0.50;;;;;;;8.45;100.00;153529.63;4965549;28;20449;-74
2023/11/10 10:23:38;;;;;;;1.63;0.40;;;;;;;8.35;100.00;153505.06;4979430;28;20480;-74
2023/11/10 10:26:06;;;;;;;0.73;0.30;;;;;;;8.28;100.00;153485.69;4982649;28;20456;-74
2023/11/10 10:28:34;;;;;;;0.90;0.50;;;;;;;8.21;100.00;153468.81;4961867;28;20453;-74
2023/11/10 10:31:01;;;;;;;1.43;0.50;;;;;;;8.08;100.00;153435.22;4966203;28;20520;-74
2023/11/10 10:33:28;;;;;;;0.90;0.40;;;;;;;8.06;100.00;153430.06;4967776;28;20450;-75
2023/11/10 10:35:55;;;;;;;1.20;0.60;;;;;;;7.98;100.00;153410.69;4984859;28;20465;-74
2023/11/10 10:38:24;;;;;;;0.90;0.40;;;;;;;7.93;100.00;153396.47;4979237;28;20481;-74
2023/11/10 10:40:55;;;;;;;1.03;0.57;;;;;;;7.91;100.00;153391.31;4981785;28;20485;-75
2023/11/10 10:43:21;;;;;;;1.40;0.50;;;;;;;7.91;100.00;153391.31;4968624;28;20489;-75
2023/11/10 10:45:51;;;;;;;0.70;0.30;;;;;;;7.94;100.00;153399.09;4968321;28;20878;-75
2023/11/10 10:48:18;;;;;;;1.10;0.70;;;;;;;7.92;100.00;153393.88;4986503;28;20512;-75
2023/11/10 10:50:45;;;;;;;2.13;0.50;;;;;;;7.94;100.00;153399.09;4982370;28;20816;-75
2023/11/10 10:53:13;;;;;;;1.83;0.60;;;;;;;7.98;100.00;153410.69;4981347;28;20814;-74
2023/11/10 10:55:40;;;;;;;0.93;0.50;;;;;;;8.01;100.00;153417.16;4978059;28;20449;-74
2023/11/10 10:58:08;;;;;;;1.20;0.70;;;;;;;7.97;100.00;153406.78;4986528;28;20536;-74
2023/11/10 11:00:37;;;;;;;1.20;0.70;;;;;;;7.93;100.00;153397.78;4968832;28;20516;-74
2023/11/10 11:03:15;;;;;;;0.90;0.60;;;;;;;7.90;100.00;153388.72;4961314;28;21194;-75
2023/11/10 11:05:50;;;;;;;1.53;0.73;;;;;;;7.92;100.00;153393.88;4945230;28;20472;-75
2023/11/10 11:08:32;;;;;;;1.90;0.67;;;;;;;7.92;100.00;153395.19;4968523;28;20453;-75
2023/11/10 11:11:12;;;;;;;1.20;0.70;;;;;;;7.94;100.00;153399.09;4986664;28;20453;-75
2023/11/10 11:13:53;;;;;;;1.60;0.67;;;;;;;7.98;100.00;153409.41;4985415;28;20453;-74
2023/11/10 11:16:31;;;;;;;1.20;0.50;;;;;;;8.01;100.00;153417.16;4967329;28;20520;-75
2023/11/10 11:19:19;;;;;;;3.53;0.47;;;;;;;8.05;100.00;153427.47;4975626;28;20469;-74
2023/11/10 11:21:48;;;;;;;1.20;0.70;;;;;;;8.10;100.00;153440.38;4979934;28;20438;-74
2023/11/10 11:24:18;;;;;;;1.30;0.63;;;;;;;8.16;100.00;153455.91;4982911;28;20624;-75
2023/11/10 11:26:52;;;;;;;1.53;0.70;;;;;;;8.17;100.00;153458.50;4967521;28;20456;-74